Saint Clement, Missouri
Current Conditions -  °F | °C
As of 8:35 AM on Tuesday 21 Oct 2014 (Local Time) from KPPQ Reporting Station
Clear Clear  
Wind Chill: 48°   Ceiling: Unl
Heat Index: 50°   Visibility: 10mi
Dew Point: 44°   Wind: 5mph
Humidity: 81%   Direction: 40°NE
Pressure: 30.15"   Gusts: NA
Location:  39.321°N, 91.1912°W
Report Text: KPPQ 211335Z AUTO 04004KT 10SM CLR 10/07 A3015 RMK AO2 T00980066
Loading
Personal Weather Stations






























Interactive Weather Map New forecast layout! Learn more

10-Day Weather Forecast

Advertisements
Track Severe Weather on mobile